Time;durP1;ratioP1;P1;durP2;ratioP2;P2;SDS_P1;SDS_P2;PMS_P1;PMS_P2;Temp;Humidity;BMP_temperature;BMP_pressure;BME280_temperature;BME280_humidity;BME280_pressure;Samples;Min_cycle;Max_cycle;Signal;HPM_P1;HPM_P2
2020/12/02 00:00:14;;;;;;;25.77;22.97;;;;;;;3.78;64.00;98112.31;8296842;28;20193;-84
2020/12/02 00:04:18;;;;;;;27.27;23.60;;;;;;;3.87;64.03;98120.72;8298630;28;20679;-84
2020/12/02 00:08:23;;;;;;;24.53;21.77;;;;;;;4.04;63.84;98128.13;8298530;28;20221;-83
2020/12/02 00:12:27;;;;;;;25.30;22.60;;;;;;;3.99;63.82;98116.25;8299426;28;20237;-83
2020/12/02 00:16:32;;;;;;;23.80;21.30;;;;;;;4.03;63.48;98134.13;8299020;28;20304;-83
2020/12/02 00:20:37;;;;;;;24.70;22.00;;;;;;;4.01;63.92;98111.97;8298208;28;20235;-84
2020/12/02 00:24:41;;;;;;;26.97;22.87;;;;;;;4.03;63.97;98117.91;8300763;28;20224;-85
2020/12/02 00:28:44;;;;;;;25.67;22.93;;;;;;;4.02;63.92;98117.06;8301609;28;20205;-84
2020/12/02 00:32:47;;;;;;;24.83;22.23;;;;;;;4.09;63.68;98128.94;8298865;28;20668;-84
2020/12/02 00:36:50;;;;;;;24.70;21.73;;;;;;;4.12;64.17;98120.34;8300047;28;20182;-85
2020/12/02 00:40:53;;;;;;;26.67;23.17;;;;;;;4.11;63.48;98109.25;8300853;28;20213;-85
2020/12/02 00:44:56;;;;;;;24.93;22.07;;;;;;;4.01;63.63;98117.94;8292696;28;20308;-86
2020/12/02 00:48:58;;;;;;;26.57;22.87;;;;;;;3.97;63.69;98100.91;8270146;28;20307;-86
2020/12/02 00:53:04;;;;;;;26.13;23.43;;;;;;;4.17;63.59;98110.00;8266441;28;20218;-81
2020/12/02 00:57:06;;;;;;;24.83;22.20;;;;;;;4.24;63.39;98102.16;8267308;28;20217;-81
2020/12/02 01:01:12;;;;;;;26.03;22.50;;;;;;;4.11;63.57;98104.13;8277194;28;20232;-81
2020/12/02 01:05:16;;;;;;;29.37;24.57;;;;;;;4.22;64.09;98111.59;8298738;28;20233;-82
2020/12/02 01:09:19;;;;;;;27.07;23.43;;;;;;;4.17;64.08;98103.16;8278190;28;20308;-80
2020/12/02 01:13:21;;;;;;;27.10;23.33;;;;;;;4.13;64.39;98104.06;8265245;28;20629;-82
2020/12/02 01:17:24;;;;;;;25.97;23.17;;;;;;;4.22;64.25;98110.78;8267638;28;20340;-83
2020/12/02 01:21:32;;;;;;;27.27;22.73;;;;;;;4.28;63.92;98096.16;8265826;28;20266;-82
2020/12/02 01:25:36;;;;;;;26.73;23.87;;;;;;;4.23;63.96;98091.97;8267592;28;20238;-83
2020/12/02 01:29:39;;;;;;;25.63;22.83;;;;;;;4.24;63.79;98088.50;8267577;28;20216;-82
2020/12/02 01:33:41;;;;;;;26.73;23.80;;;;;;;4.19;64.17;98087.75;8287369;28;20230;-83
2020/12/02 01:37:43;;;;;;;25.43;22.30;;;;;;;4.28;64.28;98090.16;8286604;28;20219;-83
2020/12/02 01:41:48;;;;;;;28.07;24.13;;;;;;;4.22;64.44;98087.69;8298078;28;20220;-83
2020/12/02 01:45:56;;;;;;;26.03;23.33;;;;;;;4.22;64.29;98101.34;8296411;28;20233;-85
2020/12/02 01:50:04;;;;;;;26.00;22.43;;;;;;;4.15;64.27;98079.28;8296356;28;20241;-84
2020/12/02 01:54:10;;;;;;;26.53;22.40;;;;;;;4.22;64.48;98095.38;8300367;28;20233;-83
2020/12/02 01:58:18;;;;;;;23.37;20.87;;;;;;;4.21;64.13;98101.41;8279408;28;20221;-84
2020/12/02 02:02:28;;;;;;;25.63;22.13;;;;;;;4.07;64.63;98096.47;8279239;28;20236;-84
2020/12/02 02:06:45;;;;;;;26.63;23.23;;;;;;;4.20;64.92;98115.06;8298555;28;20216;-84
2020/12/02 02:10:50;;;;;;;27.53;23.80;;;;;;;4.22;64.27;98110.78;8297633;28;20197;-84
2020/12/02 02:15:06;;;;;;;28.97;24.07;;;;;;;4.24;64.48;98103.91;8297598;28;20243;-84
2020/12/02 02:19:18;;;;;;;28.87;24.60;;;;;;;4.26;64.32;98108.13;8294750;28;20225;-84
2020/12/02 02:23:21;;;;;;;29.40;24.93;;;;;;;4.23;64.08;98110.75;8272482;28;20307;-84
2020/12/02 02:27:26;;;;;;;30.27;24.97;;;;;;;4.26;64.61;98104.72;8271864;28;20217;-84
2020/12/02 02:31:30;;;;;;;27.40;24.30;;;;;;;4.20;64.50;98110.78;8271186;28;20202;-84
2020/12/02 02:35:32;;;;;;;27.90;23.63;;;;;;;4.19;64.73;98110.81;8275146;28;20295;-84
2020/12/02 02:39:34;;;;;;;27.60;24.33;;;;;;;4.21;64.06;98097.13;8271105;28;20272;-84
2020/12/02 02:43:38;;;;;;;27.27;24.27;;;;;;;4.23;63.80;98089.41;8271641;28;20348;-84
2020/12/02 02:47:41;;;;;;;27.33;23.47;;;;;;;4.19;64.28;98098.00;8276006;28;20288;-84
2020/12/02 02:51:43;;;;;;;31.60;25.30;;;;;;;4.23;64.26;98095.38;8286614;28;20649;-84
2020/12/02 02:55:45;;;;;;;27.33;23.53;;;;;;;4.16;64.48;98080.97;8298137;28;20232;-84
2020/12/02 02:59:48;;;;;;;27.90;23.73;;;;;;;4.22;64.40;98100.50;8303360;28;20208;-83
2020/12/02 03:03:50;;;;;;;27.93;23.90;;;;;;;4.20;64.03;98085.16;8288256;28;20300;-83
2020/12/02 03:07:57;;;;;;;29.47;24.57;;;;;;;4.20;63.98;98094.56;8294701;28;20212;-83
2020/12/02 03:11:59;;;;;;;28.67;25.07;;;;;;;4.10;64.19;98079.34;8302034;28;20259;-83
2020/12/02 03:16:10;;;;;;;28.57;24.17;;;;;;;4.27;64.17;98096.16;8302277;28;20225;-83
2020/12/02 03:20:16;;;;;;;28.20;23.77;;;;;;;4.35;64.20;98094.31;8298831;28;20217;-84
2020/12/02 03:24:19;;;;;;;27.80;24.80;;;;;;;4.32;64.14;98081.53;8301377;28;20238;-83
2020/12/02 03:28:28;;;;;;;28.17;25.13;;;;;;;4.33;64.34;98093.50;8300954;28;20224;-84
2020/12/02 03:32:31;;;;;;;29.27;23.53;;;;;;;4.38;64.39;98098.53;8280220;28;20689;-83
2020/12/02 03:36:33;;;;;;;31.03;26.20;;;;;;;4.26;64.28;98087.59;8302049;28;20255;-83
2020/12/02 03:40:35;;;;;;;31.87;25.70;;;;;;;4.36;63.96;98084.88;8301908;28;20193;-83
2020/12/02 03:44:37;;;;;;;33.27;27.57;;;;;;;4.09;64.66;98095.59;8302600;28;20229;-84
2020/12/02 03:48:40;;;;;;;31.37;27.27;;;;;;;4.15;64.08;98086.09;8302756;28;20619;-84
2020/12/02 03:52:42;;;;;;;31.13;27.23;;;;;;;4.23;64.23;98079.16;8283563;28;20229;-84
2020/12/02 03:56:44;;;;;;;30.27;26.17;;;;;;;4.15;64.53;98070.72;8300370;28;20288;-84
2020/12/02 04:00:46;;;;;;;30.90;26.87;;;;;;;4.27;64.59;98085.91;8302773;28;20557;-84
2020/12/02 04:04:50;;;;;;;29.67;26.47;;;;;;;4.35;64.30;98080.66;8302206;28;20304;-84
2020/12/02 04:08:52;;;;;;;30.30;26.43;;;;;;;4.38;64.35;98078.88;8300715;28;20182;-84
2020/12/02 04:12:54;;;;;;;34.37;27.07;;;;;;;4.35;63.88;98080.66;8300640;28;20237;-84
2020/12/02 04:16:57;;;;;;;35.73;29.60;;;;;;;4.21;63.88;98083.47;8300870;28;20263;-84
2020/12/02 04:21:00;;;;;;;33.67;29.37;;;;;;;4.21;63.96;98074.03;8300238;28;20248;-83
2020/12/02 04:25:04;;;;;;;35.53;29.30;;;;;;;4.33;63.75;98070.41;8282426;28;20252;-84
2020/12/02 04:29:06;;;;;;;34.93;29.27;;;;;;;4.26;63.72;98068.81;8299761;28;20228;-84
2020/12/02 04:33:08;;;;;;;35.37;29.57;;;;;;;4.15;63.91;98065.59;8299005;28;20237;-83
2020/12/02 04:37:11;;;;;;;41.07;32.43;;;;;;;3.70;65.49;98069.72;8295061;28;20285;-84
2020/12/02 04:41:16;;;;;;;39.43;31.80;;;;;;;4.06;64.38;98058.94;8267939;28;20233;-83
2020/12/02 04:45:18;;;;;;;38.13;29.47;;;;;;;4.06;64.24;98057.19;8270390;28;20313;-84
2020/12/02 04:49:28;;;;;;;36.77;30.67;;;;;;;4.09;64.53;98066.53;8268834;28;20225;-84
2020/12/02 04:53:34;;;;;;;34.70;28.80;;;;;;;4.32;63.83;98058.44;8286672;28;20240;-84
2020/12/02 04:57:38;;;;;;;37.73;31.10;;;;;;;3.97;64.56;98039.41;8270594;28;20289;-84
2020/12/02 05:01:51;;;;;;;36.57;30.47;;;;;;;4.31;63.59;98049.09;8273216;28;20668;-84
2020/12/02 05:06:01;;;;;;;39.60;31.60;;;;;;;4.26;64.04;98054.28;8297522;28;20755;-84
2020/12/02 05:10:10;;;;;;;36.57;31.80;;;;;;;4.22;64.01;98050.09;8298077;28;20212;-84
2020/12/02 05:14:15;;;;;;;37.10;29.57;;;;;;;4.45;63.88;98046.25;8297489;28;20229;-84
2020/12/02 05:18:24;;;;;;;37.87;30.90;;;;;;;4.35;63.71;98043.03;8297774;28;20215;-84
2020/12/02 05:22:26;;;;;;;42.90;34.13;;;;;;;4.28;63.52;98047.44;8301420;28;20243;-84
2020/12/02 05:26:31;;;;;;;39.67;32.73;;;;;;;4.39;64.59;98043.81;8314092;28;20209;-84
2020/12/02 05:30:35;;;;;;;39.07;33.03;;;;;;;4.42;63.95;98041.22;8297137;28;20624;-84
2020/12/02 05:34:37;;;;;;;39.40;32.57;;;;;;;4.40;63.93;98045.50;8322526;28;20292;-82
2020/12/02 05:38:44;;;;;;;40.60;34.10;;;;;;;4.33;63.50;98039.66;8316233;28;20205;-84
2020/12/02 05:42:49;;;;;;;38.23;32.57;;;;;;;4.43;63.89;98038.59;8325468;28;20231;-83
2020/12/02 05:46:55;;;;;;;37.80;31.53;;;;;;;4.40;64.05;98037.81;8310839;28;20213;-83
2020/12/02 05:50:58;;;;;;;38.93;31.63;;;;;;;4.29;64.05;98036.28;8299837;28;20291;-83
2020/12/02 05:55:04;;;;;;;40.33;32.70;;;;;;;4.37;64.25;98048.97;8298224;28;20225;-83
2020/12/02 05:59:07;;;;;;;39.63;33.40;;;;;;;4.33;63.89;98039.66;8275730;28;20256;-83
2020/12/02 06:03:12;;;;;;;42.23;35.23;;;;;;;4.24;63.89;98030.38;8281367;28;20229;-83
2020/12/02 06:07:15;;;;;;;41.67;34.37;;;;;;;4.34;63.57;98027.66;8284285;28;20212;-83
2020/12/02 06:11:35;;;;;;;43.57;35.27;;;;;;;4.40;64.00;98030.97;8275131;28;20271;-83
2020/12/02 06:15:39;;;;;;;41.37;35.90;;;;;;;4.32;63.96;98027.69;8289627;28;20229;-83
2020/12/02 06:19:49;;;;;;;40.90;34.87;;;;;;;4.30;63.78;98034.56;8281357;28;20248;-83
2020/12/02 06:23:56;;;;;;;42.10;35.53;;;;;;;4.35;63.69;98032.78;8263027;28;20712;-84
2020/12/02 06:27:58;;;;;;;41.37;34.20;;;;;;;4.36;64.00;98025.91;8262118;28;20220;-83
2020/12/02 06:32:11;;;;;;;43.13;34.53;;;;;;;4.37;64.23;98045.56;8263093;28;20287;-84
2020/12/02 06:36:20;;;;;;;46.93;38.53;;;;;;;4.30;63.82;98026.88;8269524;28;20201;-83
2020/12/02 06:40:25;;;;;;;36.27;31.90;;;;;;;4.24;63.37;98037.25;8285866;28;20197;-85
2020/12/02 06:44:58;;;;;;;36.63;29.50;;;;;;;4.17;62.27;98038.22;8286719;28;20582;-84
2020/12/02 06:49:01;;;;;;;36.43;30.30;;;;;;;4.36;62.89;98034.47;8287912;28;20202;-83
2020/12/02 06:53:11;;;;;;;36.87;30.23;;;;;;;4.38;63.32;98035.28;8294618;28;20240;-84
2020/12/02 06:57:21;;;;;;;36.03;32.00;;;;;;;4.49;63.22;98032.50;8294449;28;20620;-84
2020/12/02 07:01:24;;;;;;;37.23;31.00;;;;;;;4.35;63.25;98027.66;8294135;28;20213;-83
2020/12/02 07:05:32;;;;;;;36.83;29.77;;;;;;;4.43;63.42;98030.91;8300485;28;20229;-84
2020/12/02 07:09:34;;;;;;;37.10;31.30;;;;;;;4.33;62.75;98029.38;8300957;28;20268;-84
2020/12/02 07:13:40;;;;;;;35.93;31.13;;;;;;;4.37;63.32;98030.19;8301385;28;20803;-84
2020/12/02 07:17:43;;;;;;;32.80;28.40;;;;;;;4.32;62.46;98030.25;8301590;28;20326;-84
2020/12/02 07:21:50;;;;;;;37.53;31.27;;;;;;;4.18;62.51;98032.22;8300492;28;20225;-83
2020/12/02 07:25:52;;;;;;;36.40;31.63;;;;;;;4.08;62.60;98041.81;8300658;28;20255;-84
2020/12/02 07:29:59;;;;;;;37.10;30.40;;;;;;;4.13;62.88;98034.84;8301481;28;20205;-84
2020/12/02 07:34:06;;;;;;;36.47;30.53;;;;;;;4.13;62.44;98036.59;8300468;28;20288;-84
2020/12/02 07:38:10;;;;;;;40.03;32.20;;;;;;;4.03;62.07;98043.59;8300371;28;20328;-84
2020/12/02 07:42:16;;;;;;;38.93;31.07;;;;;;;3.48;63.48;98043.59;8299723;28;20285;-84
2020/12/02 07:46:21;;;;;;;40.70;32.03;;;;;;;3.31;63.92;98045.53;8299963;28;20256;-84
2020/12/02 07:50:29;;;;;;;40.37;32.37;;;;;;;3.11;64.83;98051.78;8299511;28;20217;-84
2020/12/02 07:54:32;;;;;;;41.70;32.97;;;;;;;3.45;64.27;98047.91;8299553;28;20228;-84
2020/12/02 07:58:35;;;;;;;39.97;32.07;;;;;;;2.88;64.94;98052.06;8299932;28;20212;-84
2020/12/02 08:02:40;;;;;;;40.70;32.97;;;;;;;2.82;65.48;98043.59;8298986;28;20237;-83
2020/12/02 08:06:45;;;;;;;42.80;31.73;;;;;;;2.92;64.94;98052.88;8298952;28;20217;-83
2020/12/02 08:10:48;;;;;;;40.97;32.37;;;;;;;2.75;65.56;98055.63;8299419;28;20282;-83
2020/12/02 08:15:03;;;;;;;39.87;31.67;;;;;;;2.69;65.45;98048.03;8298473;28;20298;-83
2020/12/02 08:19:05;;;;;;;37.17;28.93;;;;;;;2.64;65.61;98054.91;8299442;28;20216;-84
2020/12/02 08:23:09;;;;;;;42.73;30.83;;;;;;;2.51;65.75;98046.53;8292647;28;20596;-84
2020/12/02 08:27:16;;;;;;;38.30;29.07;;;;;;;2.50;65.13;98037.19;8298514;28;20300;-84
2020/12/02 08:31:25;;;;;;;39.07;28.70;;;;;;;2.52;65.22;98045.66;8298713;28;20663;-83
2020/12/02 08:35:31;;;;;;;36.80;29.00;;;;;;;2.61;64.93;98047.25;8298182;28;20229;-84
2020/12/02 08:39:34;;;;;;;37.03;29.20;;;;;;;2.68;64.66;98047.16;8298583;28;20696;-83
2020/12/02 08:43:40;;;;;;;39.33;30.83;;;;;;;2.85;63.79;98046.97;8298783;28;20562;-83
2020/12/02 08:47:43;;;;;;;35.93;28.30;;;;;;;2.80;64.76;98045.34;8298290;28;20193;-83
2020/12/02 08:51:45;;;;;;;41.60;30.40;;;;;;;2.65;64.83;98041.28;8297420;28;20939;-83
2020/12/02 08:55:47;;;;;;;45.87;32.93;;;;;;;2.53;65.28;98026.91;8292717;28;20217;-84
2020/12/02 08:59:51;;;;;;;42.70;30.70;;;;;;;2.74;64.35;98041.13;8288360;28;20192;-84
2020/12/02 09:03:54;;;;;;;42.23;31.77;;;;;;;2.80;64.74;98045.34;8286337;28;20241;-87
2020/12/02 09:07:56;;;;;;;39.03;30.23;;;;;;;2.67;65.04;98042.09;8285007;28;20232;-84
2020/12/02 09:11:59;;;;;;;42.43;30.03;;;;;;;2.52;64.85;98022.66;8282846;28;20217;-89
2020/12/02 09:16:09;;;;;;;41.40;30.07;;;;;;;2.50;65.53;98026.94;8285493;28;20281;-88
2020/12/02 09:20:12;;;;;;;44.60;30.93;;;;;;;2.26;66.06;98016.09;8282891;28;20653;-85
2020/12/02 09:24:19;;;;;;;48.70;33.13;;;;;;;2.81;64.23;98027.41;8280497;28;20240;-85
2020/12/02 09:28:21;;;;;;;42.60;31.37;;;;;;;2.25;65.58;98016.97;8272102;28;20197;-84
2020/12/02 09:32:24;;;;;;;43.17;31.00;;;;;;;2.48;65.44;98024.41;8265463;28;20229;-82
2020/12/02 09:36:27;;;;;;;43.23;31.13;;;;;;;2.47;65.10;98012.47;8266843;28;20621;-83
2020/12/02 09:40:29;;;;;;;44.40;32.37;;;;;;;2.68;63.72;98016.50;8297604;28;20247;-83
2020/12/02 09:44:49;;;;;;;40.27;29.43;;;;;;;2.30;63.18;98010.13;8292264;28;20241;-84
2020/12/02 09:48:54;;;;;;;36.10;28.07;;;;;;;2.07;64.40;97997.56;8280721;28;20205;-82
2020/12/02 09:52:58;;;;;;;39.50;29.33;;;;;;;2.09;64.62;97984.78;8282233;28;20671;-81
2020/12/02 09:57:01;;;;;;;38.30;28.90;;;;;;;2.51;62.65;97988.59;8301450;28;20532;-84
2020/12/02 10:01:12;;;;;;;37.87;28.10;;;;;;;2.28;62.92;97987.97;8292910;28;20293;-80
2020/12/02 10:05:31;;;;;;;37.20;28.33;;;;;;;2.29;62.80;97984.56;8265072;28;20240;-79
2020/12/02 10:10:01;;;;;;;35.77;27.07;;;;;;;2.48;63.50;97968.16;8265464;28;20190;-79
2020/12/02 10:14:23;;;;;;;34.63;27.33;;;;;;;2.53;62.06;97971.53;8261912;28;20221;-79
2020/12/02 10:18:50;;;;;;;36.43;27.90;;;;;;;2.07;63.38;97966.06;8263400;28;20252;-78
2020/12/02 10:23:30;;;;;;;36.57;28.30;;;;;;;2.29;62.81;97949.63;8265062;28;20292;-80
2020/12/02 10:27:45;;;;;;;34.63;27.00;;;;;;;2.64;60.97;97950.06;8263443;28;20225;-80
2020/12/02 10:31:57;;;;;;;30.50;24.93;;;;;;;2.21;61.77;97927.56;8262896;28;20202;-80
2020/12/02 10:35:59;;;;;;;39.53;28.20;;;;;;;2.16;61.91;97930.19;8268952;28;20229;-81
2020/12/02 10:40:05;;;;;;;39.77;17.90;;;;;;;4.37;88.53;97922.50;8300085;28;20314;-78
2020/12/02 10:44:21;;;;;;;34.83;26.53;;;;;;;4.81;65.67;97911.28;8271109;28;20241;-78
2020/12/02 10:48:50;;;;;;;36.23;22.80;;;;;;;5.83;61.49;97896.84;8273988;28;20280;-77
2020/12/02 10:57:28;;;;;;;34.20;26.00;;;;;;;3.52;56.54;97878.81;8306057;28;20271;-96
2020/12/02 11:01:46;;;;;;;31.70;24.57;;;;;;;3.45;56.38;97897.69;8306077;28;20229;-89
2020/12/02 11:06:19;;;;;;;35.40;26.60;;;;;;;2.89;58.24;97884.94;8310122;28;20237;-88
2020/12/02 11:10:27;;;;;;;33.80;25.93;;;;;;;2.71;58.89;97883.47;8300011;28;20194;-88
2020/12/02 11:14:45;;;;;;;34.70;27.57;;;;;;;2.59;57.91;97872.56;8314574;28;20316;-90
2020/12/02 11:19:14;;;;;;;36.13;27.60;;;;;;;2.23;59.98;97874.75;8321464;28;20240;-92
2020/12/02 11:23:27;;;;;;;33.70;27.27;;;;;;;2.30;59.37;97886.59;8304683;28;20266;-94
2020/12/02 11:27:30;;;;;;;36.33;27.53;;;;;;;2.14;59.35;97873.16;8287182;28;20553;-89
2020/12/02 11:36:43;;;;;;;34.00;24.97;;;;;;;2.09;58.93;97865.53;8282189;28;20260;-92
2020/12/02 11:40:54;;;;;;;33.07;26.10;;;;;;;2.04;58.94;97853.72;8292877;28;20284;-94
2020/12/02 11:44:59;;;;;;;35.03;25.90;;;;;;;2.57;57.51;97847.06;8290390;28;20245;-89
2020/12/02 11:49:05;;;;;;;31.70;25.33;;;;;;;2.82;57.34;97844.97;8283769;28;20228;-89
2020/12/02 11:53:31;;;;;;;30.53;25.83;;;;;;;2.31;56.95;97844.84;8292873;28;20225;-89
2020/12/02 11:57:35;;;;;;;35.03;27.30;;;;;;;2.56;56.91;97844.50;8281067;28;20260;-86
2020/12/02 12:01:46;;;;;;;32.63;26.27;;;;;;;2.64;56.52;97840.97;8293901;28;20209;-88
2020/12/02 12:06:00;;;;;;;36.50;28.07;;;;;;;2.93;57.12;97834.56;8292805;28;20237;-92
2020/12/02 12:10:19;;;;;;;32.43;27.30;;;;;;;2.55;56.00;97825.75;8287293;28;20264;-92
2020/12/02 12:14:28;;;;;;;34.53;28.27;;;;;;;2.74;57.12;97834.00;8282519;28;20239;-88
2020/12/02 12:18:43;;;;;;;33.37;27.20;;;;;;;2.52;57.90;97828.38;8286929;28;20205;-87
2020/12/02 12:22:48;;;;;;;34.80;27.83;;;;;;;2.13;58.87;97822.91;8286588;28;20225;-90
2020/12/02 12:26:54;;;;;;;34.67;27.07;;;;;;;2.24;58.13;97825.34;8285287;28;20609;-87
2020/12/02 12:31:02;;;;;;;34.17;28.67;;;;;;;2.56;57.62;97822.34;8299066;28;20193;-92
2020/12/02 12:35:06;;;;;;;36.47;28.53;;;;;;;2.62;57.15;97819.69;8299583;28;20301;-87
2020/12/02 12:39:17;;;;;;;37.70;30.97;;;;;;;2.57;57.38;97811.25;8272822;28;20293;-87
2020/12/02 12:43:23;;;;;;;34.03;28.17;;;;;;;2.77;56.62;97795.59;8299400;28;20279;-88
2020/12/02 12:47:28;;;;;;;32.93;26.80;;;;;;;2.48;56.17;97798.59;8280221;28;20300;-87
2020/12/02 12:51:32;;;;;;;30.90;27.30;;;;;;;2.73;55.54;97782.00;8287420;28;20264;-88
2020/12/02 12:55:37;;;;;;;34.13;27.77;;;;;;;2.54;56.44;97783.19;8283873;28;20281;-89
2020/12/02 12:59:42;;;;;;;30.43;25.90;;;;;;;2.27;56.27;97780.16;8280164;28;20221;-88
2020/12/02 13:03:45;;;;;;;33.47;28.10;;;;;;;2.43;56.29;97787.59;8275403;28;20244;-88
2020/12/02 13:07:51;;;;;;;36.80;29.60;;;;;;;2.78;56.11;97776.84;8268211;28;20238;-87
2020/12/02 13:12:07;;;;;;;34.07;27.77;;;;;;;2.97;56.25;97756.91;8285489;28;20209;-89
2020/12/02 13:16:15;;;;;;;34.07;29.00;;;;;;;2.89;56.12;97758.75;8290683;28;20225;-85
2020/12/02 13:20:32;;;;;;;35.50;27.87;;;;;;;3.02;56.10;97751.72;8274412;28;20300;-89
2020/12/02 13:24:42;;;;;;;32.37;26.20;;;;;;;3.10;56.30;97744.72;8283479;28;20263;-91
2020/12/02 13:28:51;;;;;;;28.90;25.63;;;;;;;2.81;55.28;97737.56;8284581;28;20198;-90
2020/12/02 13:32:59;;;;;;;30.83;26.13;;;;;;;2.66;56.96;97744.63;8280919;28;20307;-95
2020/12/02 13:37:03;;;;;;;30.83;26.53;;;;;;;2.64;56.56;97731.00;8300012;28;20209;-89
2020/12/02 13:41:07;;;;;;;29.43;26.30;;;;;;;2.73;56.28;97733.44;8300623;28;20213;-89
2020/12/02 13:45:14;;;;;;;28.03;24.47;;;;;;;2.94;56.51;97741.59;8287602;28;20230;-91
2020/12/02 13:49:19;;;;;;;28.30;24.63;;;;;;;2.56;56.05;97737.97;8281825;28;20290;-86
2020/12/02 13:53:26;;;;;;;29.47;25.27;;;;;;;2.79;56.50;97729.09;8299844;28;20317;-87
2020/12/02 13:57:34;;;;;;;27.43;23.77;;;;;;;2.72;56.28;97738.56;8286571;28;20213;-86
2020/12/02 14:01:37;;;;;;;30.10;24.70;;;;;;;2.90;55.92;97722.06;8285513;28;20204;-88
2020/12/02 14:05:57;;;;;;;26.07;23.27;;;;;;;2.59;55.48;97737.06;8286969;28;20637;-89
2020/12/02 14:10:01;;;;;;;27.50;23.07;;;;;;;2.33;56.07;97726.41;8287916;28;20217;-88
2020/12/02 14:14:05;;;;;;;26.33;22.80;;;;;;;2.50;56.06;97726.13;8290913;28;20715;-93
2020/12/02 14:18:11;;;;;;;25.17;22.43;;;;;;;2.44;55.15;97738.19;8281188;28;20205;-88
2020/12/02 14:22:18;;;;;;;28.30;23.03;;;;;;;2.28;55.90;97723.06;8270897;28;20705;-92
2020/12/02 14:26:22;;;;;;;26.20;22.83;;;;;;;2.42;56.29;97727.97;8273333;28;20304;-88
2020/12/02 14:30:29;;;;;;;26.93;21.90;;;;;;;2.43;55.93;97721.97;8274776;28;20577;-88
2020/12/02 14:34:36;;;;;;;25.23;21.97;;;;;;;2.59;55.60;97724.28;8291398;28;20260;-87
2020/12/02 14:38:41;;;;;;;25.87;20.67;;;;;;;2.65;54.93;97716.53;8276993;28;20292;-93
2020/12/02 14:42:51;;;;;;;23.80;20.53;;;;;;;2.27;54.97;97721.38;8292717;28;20234;-91
2020/12/02 14:47:00;;;;;;;27.03;22.37;;;;;;;1.98;56.45;97715.84;8285434;28;20296;-90
2020/12/02 14:51:03;;;;;;;28.47;23.67;;;;;;;2.12;56.35;97707.13;8277315;28;20237;-93
2020/12/02 14:55:21;;;;;;;27.50;23.73;;;;;;;2.17;55.20;97701.09;8292119;28;20335;-94
2020/12/02 14:59:40;;;;;;;27.83;23.93;;;;;;;2.17;54.36;97706.19;8301079;28;20209;-95
2020/12/02 15:08:35;;;;;;;26.53;22.47;;;;;;;2.41;54.26;97705.81;8293049;28;20233;-93
2020/12/02 15:12:39;;;;;;;42.23;28.60;;;;;;;2.25;54.23;97710.34;8270435;28;20234;-88
2020/12/02 15:16:57;;;;;;;35.47;25.97;;;;;;;2.53;54.48;97700.53;8315640;28;20208;-92
2020/12/02 15:21:02;;;;;;;54.03;40.00;;;;;;;2.52;53.73;97703.94;8320877;28;20221;-92
2020/12/02 15:25:06;;;;;;;50.07;40.90;;;;;;;2.09;54.91;97706.31;8292053;28;20243;-88
2020/12/02 15:29:10;;;;;;;44.30;38.40;;;;;;;1.96;54.61;97703.09;8273781;28;20263;-91
2020/12/02 15:33:19;;;;;;;34.40;28.80;;;;;;;2.29;54.57;97706.88;8283589;28;20386;-89
2020/12/02 15:37:31;;;;;;;33.63;25.63;;;;;;;2.04;53.99;97703.00;8269613;28;20306;-80
2020/12/02 15:41:37;;;;;;;27.67;22.90;;;;;;;2.11;54.50;97700.34;8267951;28;20279;-80
2020/12/02 15:45:47;;;;;;;26.77;22.77;;;;;;;2.05;53.74;97697.84;8267242;28;20320;-80
2020/12/02 15:49:56;;;;;;;23.50;20.60;;;;;;;2.12;53.18;97699.44;8266854;28;20650;-81
2020/12/02 15:54:13;;;;;;;32.60;26.17;;;;;;;2.35;53.34;97688.88;8276370;28;20230;-80
2020/12/02 15:58:58;;;;;;;23.13;20.63;;;;;;;2.40;53.15;97698.19;8283107;28;20567;-80
2020/12/02 16:03:01;;;;;;;22.57;20.13;;;;;;;2.39;52.92;97689.66;8280393;28;20231;-80
2020/12/02 16:07:15;;;;;;;22.50;19.90;;;;;;;2.61;52.32;97691.88;8285626;28;20252;-80
2020/12/02 16:11:19;;;;;;;25.20;22.30;;;;;;;2.42;52.47;97694.75;8299496;28;20624;-81
2020/12/02 16:15:22;;;;;;;24.97;21.13;;;;;;;2.58;52.64;97694.50;8299354;28;20769;-82
2020/12/02 16:19:25;;;;;;;24.90;21.67;;;;;;;2.71;51.28;97693.41;8298742;28;20217;-80
2020/12/02 16:23:32;;;;;;;25.50;22.73;;;;;;;2.59;51.92;97685.94;8297419;28;20648;-80
2020/12/02 16:27:34;;;;;;;24.23;21.10;;;;;;;2.79;52.11;97685.59;8297211;28;20224;-79
2020/12/02 16:31:36;;;;;;;25.43;21.93;;;;;;;2.91;52.71;97678.56;8298028;28;20586;-79
2020/12/02 16:35:39;;;;;;;23.77;21.10;;;;;;;2.89;51.06;97676.88;8293323;28;20241;-79
2020/12/02 16:39:41;;;;;;;23.67;21.03;;;;;;;2.82;51.40;97675.31;8277537;28;20531;-81
2020/12/02 16:43:50;;;;;;;23.97;21.37;;;;;;;2.98;51.86;97674.16;8290173;28;20229;-80
2020/12/02 16:48:00;;;;;;;33.10;26.57;;;;;;;2.83;51.13;97672.72;8292291;28;20342;-81
2020/12/02 16:52:07;;;;;;;39.83;32.73;;;;;;;3.02;51.88;97668.13;8277863;28;20320;-83
2020/12/02 16:56:19;;;;;;;30.47;26.00;;;;;;;2.93;51.75;97674.25;8282774;28;20285;-79
2020/12/02 17:00:25;;;;;;;30.63;25.20;;;;;;;3.06;51.37;97661.22;8270694;28;20210;-84
2020/12/02 17:04:29;;;;;;;37.93;31.17;;;;;;;3.04;51.85;97660.41;8288179;28;20314;-87
2020/12/02 17:08:34;;;;;;;25.13;20.97;;;;;;;2.65;51.19;97660.28;8284318;28;20194;-84
2020/12/02 17:12:56;;;;;;;24.93;21.73;;;;;;;2.80;51.03;97657.47;8278924;28;20324;-83
2020/12/02 17:17:00;;;;;;;24.43;21.43;;;;;;;3.02;51.24;97655.31;8287294;28;20561;-88
2020/12/02 17:21:12;;;;;;;23.63;20.87;;;;;;;3.02;50.95;97655.31;8282391;28;20703;-81
2020/12/02 17:25:28;;;;;;;25.17;22.47;;;;;;;3.06;50.98;97646.72;8273071;28;20285;-80
2020/12/02 17:29:51;;;;;;;25.43;22.03;;;;;;;3.15;52.89;97650.81;8295533;28;20210;-81
2020/12/02 17:33:58;;;;;;;25.17;22.43;;;;;;;3.13;52.42;97647.44;8295331;28;20373;-80
2020/12/02 17:38:10;;;;;;;23.80;20.57;;;;;;;3.12;51.15;97635.50;8294698;28;20714;-80
2020/12/02 17:42:31;;;;;;;25.53;22.23;;;;;;;3.14;51.49;97644.00;8294462;28;20217;-81
2020/12/02 17:46:35;;;;;;;30.20;25.20;;;;;;;3.07;51.36;97634.78;8268512;28;20700;-80
2020/12/02 17:50:44;;;;;;;26.23;23.13;;;;;;;3.13;51.14;97640.59;8275442;28;20767;-80
2020/12/02 17:54:46;;;;;;;30.57;24.30;;;;;;;2.71;51.00;97653.34;8277157;28;20730;-78
2020/12/02 17:58:51;;;;;;;32.90;24.93;;;;;;;3.07;52.23;97640.75;8265943;28;20229;-78
2020/12/02 18:03:03;;;;;;;28.20;22.93;;;;;;;3.19;51.22;97634.53;8277064;28;20660;-78
2020/12/02 18:07:18;;;;;;;29.70;25.70;;;;;;;3.26;52.05;97632.69;8274494;28;20201;-78
2020/12/02 18:11:33;;;;;;;24.93;22.27;;;;;;;3.19;50.71;97638.81;8284841;28;20193;-78
2020/12/02 18:15:42;;;;;;;28.83;25.43;;;;;;;3.26;50.29;97638.66;8279586;28;20223;-78
2020/12/02 18:19:55;;;;;;;35.03;28.30;;;;;;;3.28;51.45;97633.50;8270708;28;20248;-79
2020/12/02 18:24:07;;;;;;;29.07;25.60;;;;;;;3.29;52.15;97635.19;8274160;28;20301;-78
2020/12/02 18:28:15;;;;;;;29.10;25.93;;;;;;;3.26;53.35;97625.03;8291743;28;20201;-85
2020/12/02 18:32:41;;;;;;;30.77;26.60;;;;;;;3.33;53.69;97635.09;8294100;28;20213;-79
2020/12/02 18:37:00;;;;;;;26.47;22.40;;;;;;;3.18;54.58;97639.66;8306400;28;20220;-79
2020/12/02 18:41:21;;;;;;;28.33;24.77;;;;;;;3.18;53.19;97637.97;8314098;28;20244;-79
2020/12/02 18:45:43;;;;;;;;;;;;;;;;;;;;;
2020/12/02 18:49:54;;;;;;;27.90;22.53;;;;;;;3.25;52.58;97633.56;8311804;28;20245;-78
2020/12/02 18:54:01;;;;;;;25.93;23.10;;;;;;;3.15;53.63;97627.78;8314974;28;20320;-80
2020/12/02 18:58:13;;;;;;;28.50;24.53;;;;;;;3.19;54.05;97633.69;8315207;28;20181;-80
2020/12/02 19:02:22;;;;;;;29.57;26.40;;;;;;;3.17;54.29;97633.72;8319086;28;20216;-77
2020/12/02 19:06:26;;;;;;;30.60;19.20;;;;;;;6.36;91.46;97625.38;8301786;28;20541;-90
2020/12/02 19:10:28;;;;;;;27.30;21.43;;;;;;;7.63;59.61;97618.31;8284385;28;20206;-90
2020/12/02 19:14:39;;;;;;;27.67;23.63;;;;;;;5.79;48.30;97620.28;8296713;28;20229;-80
2020/12/02 19:19:00;;;;;;;29.00;23.87;;;;;;;4.93;50.80;97621.91;8275793;28;20332;-80
2020/12/02 19:23:28;;;;;;;28.03;24.43;;;;;;;4.24;52.05;97616.84;8283786;28;20315;-79
2020/12/02 19:27:37;;;;;;;28.53;25.40;;;;;;;4.19;52.37;97611.84;8282791;28;20687;-81